createdAt,value
2018-08-17T00:00:07.322Z,6.83
2018-08-17T00:02:35.995Z,7.43
2018-08-17T00:05:04.628Z,7.17
2018-08-17T00:07:33.279Z,7.00
2018-08-17T00:10:01.608Z,7.90
2018-08-17T00:12:29.940Z,7.07
2018-08-17T00:14:58.549Z,7.90
2018-08-17T00:17:27.287Z,7.90
2018-08-17T00:19:55.692Z,6.90
2018-08-17T00:22:23.948Z,6.67
2018-08-17T00:24:52.408Z,7.70
2018-08-17T00:27:20.673Z,7.27
2018-08-17T00:29:48.978Z,7.83
2018-08-17T00:32:17.529Z,6.90
2018-08-17T00:34:45.830Z,7.57
2018-08-17T00:37:14.379Z,7.30
2018-08-17T00:39:43.201Z,8.13
2018-08-17T00:42:11.480Z,7.40
2018-08-17T00:44:39.960Z,7.63
2018-08-17T00:47:08.284Z,8.43
2018-08-17T00:49:37.151Z,7.40
2018-08-17T00:52:05.715Z,7.72
2018-08-17T00:54:34.003Z,8.13
2018-08-17T00:57:02.288Z,7.30
2018-08-17T00:59:30.655Z,7.47
2018-08-17T01:01:59.568Z,8.45
2018-08-17T01:04:28.088Z,7.23
2018-08-17T01:06:56.629Z,7.50
2018-08-17T01:09:25.706Z,8.50
2018-08-17T01:11:54.231Z,8.70
2018-08-17T01:14:23.175Z,7.87
2018-08-17T01:16:51.840Z,9.78
2018-08-17T01:19:20.244Z,10.50
2018-08-17T01:21:48.780Z,9.18
2018-08-17T01:24:17.328Z,9.27
2018-08-17T01:26:45.903Z,10.10
2018-08-17T01:29:14.508Z,10.40
2018-08-17T01:31:42.946Z,10.57
2018-08-17T01:34:11.248Z,9.80
2018-08-17T01:36:39.532Z,9.43
2018-08-17T01:39:09.024Z,10.05
2018-08-17T01:41:37.585Z,9.70
2018-08-17T01:44:05.882Z,10.13
2018-08-17T01:46:34.463Z,9.73
2018-08-17T01:49:03.073Z,10.10
2018-08-17T01:51:32.271Z,9.40
2018-08-17T01:54:00.700Z,9.40
2018-08-17T01:56:29.592Z,9.77
2018-08-17T01:58:57.882Z,9.80
2018-08-17T02:01:26.192Z,9.10
2018-08-17T02:03:54.825Z,9.17
2018-08-17T02:06:23.703Z,9.70
2018-08-17T02:08:52.263Z,10.03
2018-08-17T02:11:20.611Z,10.30
2018-08-17T02:13:49.208Z,10.30
2018-08-17T02:16:17.612Z,9.53
2018-08-17T02:18:45.990Z,10.10
2018-08-17T02:21:14.268Z,9.90
2018-08-17T02:23:42.850Z,9.60
2018-08-17T02:26:11.131Z,9.20
2018-08-17T02:28:39.805Z,8.90
2018-08-17T02:31:08.659Z,9.70
2018-08-17T02:33:37.096Z,9.90
2018-08-17T02:36:05.428Z,9.77
2018-08-17T02:38:34.036Z,9.47
2018-08-17T02:41:02.573Z,9.03
2018-08-17T02:43:31.146Z,9.50
2018-08-17T02:45:59.530Z,9.50
2018-08-17T02:48:28.402Z,9.67
2018-08-17T02:50:57.300Z,9.75
2018-08-17T02:53:25.864Z,9.85
2018-08-17T02:55:54.421Z,9.63
2018-08-17T02:58:22.798Z,9.33
2018-08-17T03:00:51.339Z,9.73
2018-08-17T03:03:19.905Z,9.90
2018-08-17T03:05:48.179Z,9.03
2018-08-17T03:08:16.512Z,9.47
2018-08-17T03:10:44.871Z,9.30
2018-08-17T03:13:13.416Z,10.13
2018-08-17T03:15:41.717Z,9.37
2018-08-17T03:18:10.286Z,9.93
2018-08-17T03:20:39.042Z,9.53
2018-08-17T03:23:07.623Z,9.00
2018-08-17T03:25:36.148Z,9.20
2018-08-17T03:28:04.955Z,9.00
2018-08-17T03:30:33.536Z,9.23
2018-08-17T03:33:01.832Z,8.83
2018-08-17T03:35:30.209Z,9.37
2018-08-17T03:37:58.547Z,8.83
2018-08-17T03:40:27.063Z,8.90
2018-08-17T03:42:55.655Z,9.00
2018-08-17T03:45:24.299Z,8.50
2018-08-17T03:47:52.571Z,8.90
2018-08-17T03:50:21.206Z,8.17
2018-08-17T03:52:49.500Z,8.00
2018-08-17T03:55:18.055Z,8.33
2018-08-17T03:57:46.586Z,7.75
2018-08-17T04:00:15.065Z,9.07
2018-08-17T04:02:43.699Z,8.43
2018-08-17T04:05:12.663Z,8.03
2018-08-17T04:07:41.728Z,8.10
2018-08-17T04:10:10.474Z,8.80
2018-08-17T04:12:38.939Z,8.47
2018-08-17T04:15:08.263Z,8.50
2018-08-17T04:17:36.553Z,8.37
2018-08-17T04:20:05.301Z,7.87
2018-08-17T04:22:34.056Z,8.93
2018-08-17T04:25:02.384Z,8.83
2018-08-17T04:27:31.075Z,7.90
2018-08-17T04:29:59.488Z,7.80
2018-08-17T04:32:28.191Z,8.08
2018-08-17T04:34:56.804Z,7.67
2018-08-17T04:37:25.436Z,6.77
2018-08-17T04:39:54.020Z,7.37
2018-08-17T04:42:22.309Z,8.10
2018-08-17T04:44:50.582Z,7.47
2018-08-17T04:47:19.213Z,7.03
2018-08-17T04:49:48.082Z,7.07
2018-08-17T04:52:16.439Z,7.97
2018-08-17T04:54:44.792Z,7.80
2018-08-17T04:57:13.276Z,7.60
2018-08-17T04:59:41.844Z,7.50
2018-08-17T05:02:10.160Z,8.00
2018-08-17T05:04:38.520Z,8.63
2018-08-17T05:07:07.236Z,8.27
2018-08-17T05:09:35.499Z,8.60
2018-08-17T05:12:04.443Z,7.83
2018-08-17T05:14:32.773Z,7.50
2018-08-17T05:17:01.048Z,6.87
2018-08-17T05:19:29.624Z,7.80
2018-08-17T05:21:58.338Z,8.33
2018-08-17T05:24:27.019Z,7.30
2018-08-17T05:26:55.531Z,7.47
2018-08-17T05:29:23.904Z,8.37
2018-08-17T05:31:52.212Z,7.27
2018-08-17T05:34:21.110Z,8.43
2018-08-17T05:36:49.424Z,7.70
2018-08-17T05:39:17.951Z,7.75
2018-08-17T05:41:46.215Z,9.17
2018-08-17T05:44:14.823Z,8.23
2018-08-17T05:46:44.060Z,9.50
2018-08-17T05:49:12.855Z,9.07
2018-08-17T05:51:41.152Z,9.87
2018-08-17T05:54:09.659Z,8.90
2018-08-17T05:56:38.066Z,8.63
2018-08-17T05:59:06.868Z,9.30
2018-08-17T06:01:35.415Z,8.78
2018-08-17T06:04:03.966Z,8.77
2018-08-17T06:06:32.256Z,9.33
2018-08-17T06:09:00.513Z,8.90
2018-08-17T06:11:29.803Z,9.57
2018-08-17T06:13:58.183Z,9.60
2018-08-17T06:16:26.715Z,9.83
2018-08-17T06:18:55.264Z,8.65
2018-08-17T06:21:23.975Z,9.40
2018-08-17T06:23:52.415Z,9.10
2018-08-17T06:26:20.922Z,8.60
2018-08-17T06:28:49.664Z,7.58
2018-08-17T06:31:18.322Z,7.70
2018-08-17T06:33:46.872Z,7.33
2018-08-17T06:36:15.646Z,7.37
2018-08-17T06:38:43.999Z,7.10
2018-08-17T06:41:12.595Z,7.40
2018-08-17T06:43:41.203Z,6.87
2018-08-17T06:46:09.771Z,6.70
2018-08-17T06:48:38.036Z,6.57
2018-08-17T06:51:06.703Z,6.50
2018-08-17T06:53:35.480Z,5.63
2018-08-17T06:56:04.070Z,6.03
2018-08-17T06:58:32.628Z,5.40
2018-08-17T07:01:00.911Z,6.13
2018-08-17T07:03:29.226Z,5.80
2018-08-17T07:05:58.048Z,5.63
2018-08-17T07:08:26.329Z,4.80
2018-08-17T07:10:54.599Z,5.20
2018-08-17T07:13:23.936Z,5.33
2018-08-17T07:15:52.386Z,4.57
2018-08-17T07:18:20.911Z,5.30
2018-08-17T07:20:49.251Z,4.53
2018-08-17T07:23:17.859Z,4.97
2018-08-17T07:25:46.451Z,4.90
2018-08-17T07:28:15.009Z,5.28
2018-08-17T07:30:43.912Z,4.45
2018-08-17T07:33:12.436Z,4.73
2018-08-17T07:35:41.445Z,4.40
2018-08-17T07:38:10.587Z,4.83
2018-08-17T07:40:38.907Z,4.13
2018-08-17T07:43:07.652Z,4.50
2018-08-17T07:45:36.272Z,4.03
2018-08-17T07:48:04.659Z,4.40
2018-08-17T07:50:33.264Z,3.70
2018-08-17T07:53:01.881Z,4.37
2018-08-17T07:55:30.404Z,4.35
2018-08-17T07:57:59.028Z,4.77
2018-08-17T08:00:27.300Z,3.57
2018-08-17T08:02:55.561Z,4.30
2018-08-17T08:05:24.126Z,4.25
2018-08-17T08:07:52.691Z,4.50
2018-08-17T08:10:21.005Z,3.90
2018-08-17T08:12:49.311Z,3.60
2018-08-17T08:15:17.572Z,3.43
2018-08-17T08:17:45.966Z,3.47
2018-08-17T08:20:27.820Z,3.23
2018-08-17T08:23:07.718Z,2.97
2018-08-17T08:25:36.967Z,4.05
2018-08-17T08:28:05.687Z,3.70
2018-08-17T08:30:34.103Z,3.70
2018-08-17T08:33:03.024Z,3.45
2018-08-17T08:35:31.576Z,3.72
2018-08-17T08:38:00.169Z,3.30
2018-08-17T08:40:29.055Z,3.40
2018-08-17T08:42:57.793Z,3.70
2018-08-17T08:45:26.439Z,4.07
2018-08-17T08:47:54.723Z,3.70
2018-08-17T08:50:23.239Z,2.93
2018-08-17T08:52:52.180Z,3.40
2018-08-17T08:55:20.652Z,2.90
2018-08-17T08:57:48.901Z,3.10
2018-08-17T09:00:17.817Z,2.93
2018-08-17T09:02:47.027Z,3.05
2018-08-17T09:05:15.367Z,2.47
2018-08-17T09:07:43.850Z,3.40
2018-08-17T09:10:12.357Z,3.03
2018-08-17T09:12:40.884Z,3.12
2018-08-17T09:15:11.212Z,2.87
2018-08-17T09:17:40.553Z,2.83
2018-08-17T09:20:10.581Z,2.60
2018-08-17T09:22:39.068Z,3.00
2018-08-17T09:25:07.604Z,2.93
2018-08-17T09:27:36.452Z,2.70
2018-08-17T09:30:07.283Z,2.50
2018-08-17T09:32:35.949Z,2.70
2018-08-17T09:35:05.023Z,2.67
2018-08-17T09:37:33.618Z,2.72
2018-08-17T09:40:01.909Z,3.20
2018-08-17T09:42:30.464Z,2.17
2018-08-17T09:44:59.020Z,3.02
2018-08-17T09:47:27.391Z,2.53
2018-08-17T09:49:55.661Z,2.57
2018-08-17T09:52:23.959Z,2.70
2018-08-17T09:54:52.220Z,2.77
2018-08-17T09:57:20.694Z,2.90
2018-08-17T09:59:49.058Z,2.40
2018-08-17T10:02:22.905Z,2.53
2018-08-17T10:06:57.995Z,2.50
2018-08-17T10:09:31.476Z,3.00
2018-08-17T10:12:00.012Z,2.40
2018-08-17T10:14:28.568Z,2.67
2018-08-17T10:16:56.884Z,2.63
2018-08-17T10:19:25.420Z,2.70
2018-08-17T10:21:55.717Z,2.30
2018-08-17T10:24:24.382Z,2.97
2018-08-17T10:26:54.032Z,3.07
2018-08-17T10:29:23.072Z,2.90
2018-08-17T10:31:51.491Z,2.47
2018-08-17T10:34:20.203Z,2.73
2018-08-17T10:36:48.685Z,2.80
2018-08-17T10:39:17.422Z,2.60
2018-08-17T10:41:45.771Z,2.57
2018-08-17T10:44:14.077Z,2.73
2018-08-17T10:46:43.035Z,2.40
2018-08-17T10:49:11.768Z,3.23
2018-08-17T10:51:40.500Z,2.73
2018-08-17T10:54:08.788Z,2.23
2018-08-17T10:56:37.351Z,2.27
2018-08-17T10:59:05.737Z,2.13
2018-08-17T11:01:34.019Z,2.37
2018-08-17T11:04:02.291Z,2.37
2018-08-17T11:06:31.080Z,1.97
2018-08-17T11:08:59.616Z,1.95
2018-08-17T11:11:28.866Z,2.23
2018-08-17T11:13:57.405Z,2.27
2018-08-17T11:16:25.676Z,2.33
2018-08-17T11:18:54.575Z,2.77
2018-08-17T11:21:23.110Z,2.55
2018-08-17T11:23:51.954Z,2.50
2018-08-17T11:26:20.665Z,2.53
2018-08-17T11:28:49.201Z,2.47
2018-08-17T11:31:17.815Z,2.25
2018-08-17T11:33:46.719Z,2.07
2018-08-17T11:36:15.528Z,2.30
2018-08-17T11:38:43.984Z,2.70
2018-08-17T11:41:13.074Z,1.83
2018-08-17T11:43:41.503Z,1.83
2018-08-17T11:46:10.141Z,2.10
2018-08-17T11:48:39.075Z,2.00
2018-08-17T11:51:07.644Z,2.13
2018-08-17T11:53:36.121Z,1.90
2018-08-17T11:56:05.124Z,2.47
2018-08-17T11:58:33.769Z,1.87
2018-08-17T12:01:06.615Z,2.20
2018-08-17T12:03:35.334Z,1.80
2018-08-17T12:06:03.612Z,2.47
2018-08-17T12:08:32.522Z,1.70
2018-08-17T12:11:05.183Z,1.90
2018-08-17T12:13:37.024Z,2.40
2018-08-17T12:16:06.468Z,2.30
2018-08-17T12:18:34.802Z,3.20
2018-08-17T12:21:03.504Z,2.30
2018-08-17T12:23:31.917Z,2.13
2018-08-17T12:26:00.221Z,2.00
2018-08-17T12:28:29.808Z,2.33
2018-08-17T12:30:59.092Z,2.20
2018-08-17T12:33:27.752Z,1.85
2018-08-17T12:35:56.793Z,1.98
2018-08-17T12:38:25.653Z,1.47
2018-08-17T12:40:55.470Z,1.50
2018-08-17T12:43:32.474Z,1.62
2018-08-17T12:46:00.958Z,1.70
2018-08-17T12:48:29.237Z,1.70
2018-08-17T12:51:08.157Z,1.98
2018-08-17T12:53:36.891Z,1.87
2018-08-17T12:56:05.644Z,1.67
2018-08-17T12:58:34.120Z,1.50
2018-08-17T13:01:02.398Z,1.75
2018-08-17T13:03:30.740Z,2.10
2018-08-17T13:05:59.397Z,2.00
2018-08-17T13:08:28.567Z,1.55
2018-08-17T13:10:59.472Z,1.80
2018-08-17T13:13:28.124Z,1.67
2018-08-17T13:16:02.260Z,1.52
2018-08-17T13:18:32.765Z,2.30
2018-08-17T13:21:01.229Z,1.87
2018-08-17T13:23:29.505Z,1.92
2018-08-17T13:25:57.876Z,1.43
2018-08-17T13:28:26.149Z,1.67
2018-08-17T13:30:55.275Z,1.50
2018-08-17T13:33:23.835Z,1.50
2018-08-17T13:35:52.160Z,1.87
2018-08-17T13:38:20.472Z,1.70
2018-08-17T13:40:48.753Z,1.75
2018-08-17T13:43:17.305Z,1.77
2018-08-17T13:45:45.937Z,1.72
2018-08-17T13:48:14.230Z,1.92
2018-08-17T13:50:42.503Z,2.37
2018-08-17T13:53:11.255Z,1.92
2018-08-17T13:55:39.863Z,2.22
2018-08-17T13:58:08.268Z,1.82
2018-08-17T14:00:37.280Z,1.72
2018-08-17T14:03:06.264Z,1.93
2018-08-17T14:05:35.111Z,1.70
2018-08-17T14:08:03.959Z,2.12
2018-08-17T14:10:32.828Z,1.95
2018-08-17T14:13:01.524Z,2.15
2018-08-17T14:15:30.075Z,1.85
2018-08-17T14:17:58.537Z,1.57
2018-08-17T14:20:26.842Z,1.97
2018-08-17T14:22:56.099Z,1.82
2018-08-17T14:25:24.594Z,1.90
2018-08-17T14:27:53.489Z,1.90
2018-08-17T14:30:21.948Z,2.00
2018-08-17T14:32:50.210Z,2.15
2018-08-17T14:35:18.928Z,2.27
2018-08-17T14:37:47.951Z,1.80
2018-08-17T14:40:16.645Z,1.50
2018-08-17T14:42:45.130Z,1.77
2018-08-17T14:45:14.012Z,2.17
2018-08-17T14:47:42.584Z,1.72
2018-08-17T14:50:12.990Z,1.62
2018-08-17T14:52:42.075Z,1.65
2018-08-17T14:55:11.403Z,1.90
2018-08-17T14:57:39.949Z,2.03
2018-08-17T15:00:11.774Z,1.98
2018-08-17T15:02:40.680Z,1.97
2018-08-17T15:05:10.905Z,1.70
2018-08-17T15:07:39.339Z,1.62
2018-08-17T15:10:09.701Z,2.15
2018-08-17T15:12:38.913Z,2.23
2018-08-17T15:15:07.842Z,1.55
2018-08-17T15:17:36.112Z,1.77
2018-08-17T15:20:04.809Z,2.07
2018-08-17T15:22:33.104Z,1.90
2018-08-17T15:25:01.724Z,2.02
2018-08-17T15:27:30.427Z,2.12
2018-08-17T15:29:58.873Z,2.08
2018-08-17T15:32:27.800Z,1.67
2018-08-17T15:34:56.420Z,1.60
2018-08-17T15:37:24.982Z,2.00
2018-08-17T15:39:53.526Z,1.83
2018-08-17T15:42:22.107Z,2.00
2018-08-17T15:44:50.520Z,2.03
2018-08-17T15:47:19.630Z,2.00
2018-08-17T15:50:26.561Z,1.70
2018-08-17T15:52:55.248Z,2.20
2018-08-17T15:55:23.936Z,2.10
2018-08-17T15:57:53.061Z,2.07
2018-08-17T16:00:21.762Z,1.60
2018-08-17T16:02:50.708Z,2.27
2018-08-17T16:05:19.032Z,1.80
2018-08-17T16:07:47.628Z,2.57
2018-08-17T16:10:16.570Z,2.10
2018-08-17T16:12:45.843Z,1.80
2018-08-17T16:15:14.110Z,2.43
2018-08-17T16:17:42.813Z,2.60
2018-08-17T16:20:12.400Z,2.00
2018-08-17T16:22:41.126Z,2.27
2018-08-17T16:25:10.110Z,2.63
2018-08-17T16:27:39.022Z,2.33
2018-08-17T16:30:09.123Z,2.40
2018-08-17T16:32:37.839Z,1.90
2018-08-17T16:35:06.338Z,1.77
2018-08-17T16:37:34.916Z,2.43
2018-08-17T16:40:03.681Z,2.70
2018-08-17T16:42:34.103Z,2.55
2018-08-17T16:45:02.973Z,2.47
2018-08-17T16:47:31.644Z,2.47
2018-08-17T16:49:59.948Z,2.10
2018-08-17T16:52:28.538Z,2.17
2018-08-17T16:54:56.812Z,2.00
2018-08-17T16:57:25.252Z,2.50
2018-08-17T16:59:53.533Z,1.70
2018-08-17T17:02:22.199Z,2.50
2018-08-17T17:04:50.591Z,2.37
2018-08-17T17:07:18.886Z,1.90
2018-08-17T17:09:47.452Z,2.00
2018-08-17T17:12:17.854Z,2.00
2018-08-17T17:14:46.995Z,2.47
2018-08-17T17:17:15.803Z,2.50
2018-08-17T17:19:44.711Z,2.10
2018-08-17T17:22:12.975Z,2.53
2018-08-17T17:24:41.544Z,2.33
2018-08-17T17:27:10.164Z,1.93
2018-08-17T17:29:38.589Z,2.10
2018-08-17T17:32:07.204Z,2.70
2018-08-17T17:34:35.830Z,2.40
2018-08-17T17:37:05.180Z,2.30
2018-08-17T17:39:33.447Z,2.30
2018-08-17T17:42:02.068Z,2.30
2018-08-17T17:44:30.546Z,2.67
2018-08-17T17:46:59.125Z,2.90
2018-08-17T17:49:27.743Z,2.97
2018-08-17T17:51:56.338Z,2.10
2018-08-17T17:54:25.615Z,2.53
2018-08-17T17:57:02.950Z,2.37
2018-08-17T17:59:31.583Z,2.20
2018-08-17T18:01:59.843Z,2.60
2018-08-17T18:04:30.950Z,2.50
2018-08-17T18:07:00.044Z,3.47
2018-08-17T18:09:28.979Z,3.43
2018-08-17T18:11:57.273Z,3.50
2018-08-17T18:14:25.651Z,2.97
2018-08-17T18:16:53.903Z,2.30
2018-08-17T18:19:22.410Z,2.87
2018-08-17T18:21:51.028Z,2.50
2018-08-17T18:24:19.316Z,2.37
2018-08-17T18:26:49.708Z,2.57
2018-08-17T18:29:18.646Z,2.30
2018-08-17T18:31:47.263Z,2.53
2018-08-17T18:34:16.296Z,2.70
2018-08-17T18:36:44.917Z,2.77
2018-08-17T18:39:14.966Z,2.42
2018-08-17T18:41:43.531Z,3.47
2018-08-17T18:44:12.485Z,3.03
2018-08-17T18:46:41.047Z,2.42
2018-08-17T18:49:09.503Z,3.70
2018-08-17T18:51:38.292Z,2.90
2018-08-17T18:54:06.600Z,3.20
2018-08-17T18:56:35.037Z,3.57
2018-08-17T18:59:03.435Z,3.20
2018-08-17T19:01:32.175Z,3.43
2018-08-17T19:04:00.447Z,3.70
2018-08-17T19:06:29.053Z,3.80
2018-08-17T19:08:57.576Z,3.53
2018-08-17T19:11:25.848Z,4.00
2018-08-17T19:13:54.363Z,4.53
2018-08-17T19:16:22.635Z,4.27
2018-08-17T19:18:51.379Z,4.87
2018-08-17T19:21:19.664Z,5.10
2018-08-17T19:23:47.947Z,5.60
2018-08-17T19:26:16.428Z,6.00
2018-08-17T19:28:50.653Z,6.27
2018-08-17T19:31:18.950Z,7.10
2018-08-17T19:33:47.223Z,6.80
2018-08-17T19:36:15.596Z,7.00
2018-08-17T19:38:43.892Z,7.87
2018-08-17T19:41:12.436Z,7.17
2018-08-17T19:43:41.041Z,7.60
2018-08-17T19:46:10.133Z,8.00
2018-08-17T19:48:38.685Z,8.00
2018-08-17T19:51:12.916Z,8.05
2018-08-17T19:53:41.270Z,7.77
2018-08-17T19:56:09.537Z,8.33
2018-08-17T19:58:38.103Z,8.55
2018-08-17T20:01:06.477Z,8.57
2018-08-17T20:03:35.040Z,7.75
2018-08-17T20:06:03.540Z,7.43
2018-08-17T20:08:32.152Z,9.43
2018-08-17T20:11:00.807Z,8.80
2018-08-17T20:13:29.425Z,7.80
2018-08-17T20:15:57.916Z,6.47
2018-08-17T20:18:27.745Z,7.47
2018-08-17T20:20:56.332Z,6.62
2018-08-17T20:23:24.912Z,6.33
2018-08-17T20:25:53.430Z,6.67
2018-08-17T20:28:21.815Z,6.13
2018-08-17T20:30:50.218Z,5.80
2018-08-17T20:33:26.973Z,5.55
2018-08-17T20:35:55.963Z,5.47
2018-08-17T20:38:25.443Z,6.47
2018-08-17T20:40:57.770Z,5.07
2018-08-17T20:43:26.638Z,5.57
2018-08-17T20:45:55.511Z,5.17
2018-08-17T20:48:24.329Z,4.50
2018-08-17T20:50:52.665Z,5.37
2018-08-17T20:53:21.367Z,5.93
2018-08-17T20:55:50.003Z,11.27
2018-08-17T20:58:19.216Z,10.25
2018-08-17T21:00:47.796Z,8.57
2018-08-17T21:03:16.262Z,7.93
2018-08-17T21:05:44.707Z,8.23
2018-08-17T21:08:13.019Z,8.17
2018-08-17T21:10:41.313Z,8.37
2018-08-17T21:13:09.588Z,7.47
2018-08-17T21:15:37.868Z,7.87
2018-08-17T21:18:06.262Z,8.90
2018-08-17T21:20:34.757Z,8.07
2018-08-17T21:23:03.672Z,7.10
2018-08-17T21:25:32.314Z,7.23
2018-08-17T21:28:01.604Z,7.00
2018-08-17T21:30:30.139Z,7.40
2018-08-17T21:32:58.419Z,7.23
2018-08-17T21:35:28.314Z,7.33
2018-08-17T21:37:56.588Z,9.00
2018-08-17T21:40:29.660Z,9.50
2018-08-17T21:43:00.019Z,10.07
2018-08-17T21:45:28.293Z,8.37
2018-08-17T21:47:56.945Z,8.83
2018-08-17T21:50:25.668Z,8.13
2018-08-17T21:52:54.176Z,8.67
2018-08-17T21:55:23.084Z,8.08
2018-08-17T21:57:51.372Z,8.27
2018-08-17T22:00:25.748Z,5.73
2018-08-17T22:02:54.108Z,5.60
2018-08-17T22:05:27.231Z,5.40
2018-08-17T22:07:56.040Z,5.43
2018-08-17T22:10:24.968Z,4.63
2018-08-17T22:12:53.361Z,5.23
2018-08-17T22:15:21.654Z,4.00
2018-08-17T22:17:49.934Z,4.93
2018-08-17T22:20:18.309Z,4.20
2018-08-17T22:22:46.855Z,4.70
2018-08-17T22:25:16.741Z,4.60
2018-08-17T22:27:45.448Z,3.75
2018-08-17T22:30:21.870Z,4.20
2018-08-17T22:32:50.666Z,3.73
2018-08-17T22:35:19.233Z,4.20
2018-08-17T22:37:47.686Z,4.03
2018-08-17T22:40:16.377Z,3.97
2018-08-17T22:42:47.045Z,3.50
2018-08-17T22:45:15.736Z,4.30
2018-08-17T22:47:44.130Z,4.30
2018-08-17T22:50:12.408Z,4.03
2018-08-17T22:52:41.117Z,4.35
2018-08-17T22:55:09.839Z,3.77
2018-08-17T22:57:38.525Z,3.80
2018-08-17T23:00:26.725Z,4.00
2018-08-17T23:02:56.947Z,3.70
2018-08-17T23:05:27.963Z,4.10
2018-08-17T23:07:56.566Z,3.83
2018-08-17T23:10:26.358Z,3.53
2018-08-17T23:12:55.870Z,3.60
2018-08-17T23:15:24.171Z,4.03
2018-08-17T23:17:57.186Z,4.20
2018-08-17T23:20:30.783Z,3.50
2018-08-17T23:23:00.569Z,4.03
2018-08-17T23:25:29.419Z,3.50
2018-08-17T23:27:58.036Z,3.90
2018-08-17T23:30:26.596Z,4.17
2018-08-17T23:32:55.156Z,3.17
2018-08-17T23:35:23.693Z,3.42
2018-08-17T23:37:52.243Z,3.87
2018-08-17T23:40:20.593Z,3.97
2018-08-17T23:42:49.119Z,3.37
2018-08-17T23:45:18.319Z,2.92
2018-08-17T23:47:47.000Z,3.23
2018-08-17T23:50:16.072Z,3.70
2018-08-17T23:52:45.118Z,3.00
2018-08-17T23:55:15.086Z,2.90
2018-08-17T23:57:43.943Z,3.20
